sensor_id;sensor_type;location;lat;lon;timestamp;temperature;humidity
35127;DHT22;21300;52.006;5.798;2023-12-20T00:00:56;5.20;99.90
35127;DHT22;21300;52.006;5.798;2023-12-20T00:03:21;5.20;99.90
35127;DHT22;21300;52.006;5.798;2023-12-20T00:05:47;5.20;99.90
35127;DHT22;21300;52.006;5.798;2023-12-20T00:08:13;5.20;99.90
35127;DHT22;21300;52.006;5.798;2023-12-20T00:10:43;5.20;99.90
35127;DHT22;21300;52.006;5.798;2023-12-20T00:13:09;5.20;99.90
35127;DHT22;21300;52.006;5.798;2023-12-20T00:15:34;5.20;99.90
35127;DHT22;21300;52.006;5.798;2023-12-20T00:18:00;5.20;99.90
35127;DHT22;21300;52.006;5.798;2023-12-20T00:20:27;5.20;99.90
35127;DHT22;21300;52.006;5.798;2023-12-20T00:22:55;5.20;99.90
35127;DHT22;21300;52.006;5.798;2023-12-20T00:25:21;5.20;99.90
35127;DHT22;21300;52.006;5.798;2023-12-20T00:27:46;5.10;99.90
35127;DHT22;21300;52.006;5.798;2023-12-20T00:30:12;5.10;99.90
35127;DHT22;21300;52.006;5.798;2023-12-20T00:32:38;5.10;99.90
35127;DHT22;21300;52.006;5.798;2023-12-20T00:35:04;5.10;99.90
35127;DHT22;21300;52.006;5.798;2023-12-20T00:37:29;5.10;99.90
35127;DHT22;21300;52.006;5.798;2023-12-20T00:39:55;5.10;99.90
35127;DHT22;21300;52.006;5.798;2023-12-20T00:42:21;5.10;99.90
35127;DHT22;21300;52.006;5.798;2023-12-20T00:44:46;5.00;99.90
35127;DHT22;21300;52.006;5.798;2023-12-20T00:47:12;5.00;99.90
35127;DHT22;21300;52.006;5.798;2023-12-20T00:49:38;4.90;99.90
35127;DHT22;21300;52.006;5.798;2023-12-20T00:52:04;4.90;99.90
35127;DHT22;21300;52.006;5.798;2023-12-20T00:54:30;4.90;99.90
35127;DHT22;21300;52.006;5.798;2023-12-20T00:56:56;4.90;99.90
35127;DHT22;21300;52.006;5.798;2023-12-20T00:59:21;4.80;99.90
35127;DHT22;21300;52.006;5.798;2023-12-20T01:01:47;4.80;99.90
35127;DHT22;21300;52.006;5.798;2023-12-20T01:04:13;4.80;99.90
35127;DHT22;21300;52.006;5.798;2023-12-20T01:06:38;4.80;99.90
35127;DHT22;21300;52.006;5.798;2023-12-20T01:09:04;4.70;99.90
35127;DHT22;21300;52.006;5.798;2023-12-20T01:11:29;4.70;99.90
35127;DHT22;21300;52.006;5.798;2023-12-20T01:13:55;4.60;99.90
35127;DHT22;21300;52.006;5.798;2023-12-20T01:16:21;4.70;99.90
35127;DHT22;21300;52.006;5.798;2023-12-20T01:18:46;4.70;99.90
35127;DHT22;21300;52.006;5.798;2023-12-20T01:21:12;4.70;99.90
35127;DHT22;21300;52.006;5.798;2023-12-20T01:23:38;4.60;99.90
35127;DHT22;21300;52.006;5.798;2023-12-20T01:26:03;4.60;99.90
35127;DHT22;21300;52.006;5.798;2023-12-20T01:28:30;4.60;99.90
35127;DHT22;21300;52.006;5.798;2023-12-20T01:30:57;4.60;99.90
35127;DHT22;21300;52.006;5.798;2023-12-20T01:33:22;4.60;99.90
35127;DHT22;21300;52.006;5.798;2023-12-20T01:35:48;4.60;99.90
35127;DHT22;21300;52.006;5.798;2023-12-20T01:38:14;4.50;99.90
35127;DHT22;21300;52.006;5.798;2023-12-20T01:40:39;4.50;99.90
35127;DHT22;21300;52.006;5.798;2023-12-20T01:43:08;4.40;99.90
35127;DHT22;21300;52.006;5.798;2023-12-20T01:45:34;4.50;99.90
35127;DHT22;21300;52.006;5.798;2023-12-20T01:48:00;4.50;99.90
35127;DHT22;21300;52.006;5.798;2023-12-20T01:50:28;4.40;99.90
35127;DHT22;21300;52.006;5.798;2023-12-20T01:52:56;4.40;99.90
35127;DHT22;21300;52.006;5.798;2023-12-20T01:55:24;4.40;99.90
35127;DHT22;21300;52.006;5.798;2023-12-20T01:57:50;4.40;99.90
35127;DHT22;21300;52.006;5.798;2023-12-20T02:00:17;4.40;99.90
35127;DHT22;21300;52.006;5.798;2023-12-20T02:02:43;4.50;99.90
35127;DHT22;21300;52.006;5.798;2023-12-20T02:05:10;4.50;99.90
35127;DHT22;21300;52.006;5.798;2023-12-20T02:07:36;4.50;99.90
35127;DHT22;21300;52.006;5.798;2023-12-20T02:10:02;4.50;99.90
35127;DHT22;21300;52.006;5.798;2023-12-20T02:12:29;4.50;99.90
35127;DHT22;21300;52.006;5.798;2023-12-20T02:14:57;4.50;99.90
35127;DHT22;21300;52.006;5.798;2023-12-20T02:17:23;4.50;99.90
35127;DHT22;21300;52.006;5.798;2023-12-20T02:19:49;4.40;99.90
35127;DHT22;21300;52.006;5.798;2023-12-20T02:22:15;4.40;99.90
35127;DHT22;21300;52.006;5.798;2023-12-20T02:24:40;4.50;99.90
35127;DHT22;21300;52.006;5.798;2023-12-20T02:27:07;4.50;99.90
35127;DHT22;21300;52.006;5.798;2023-12-20T02:29:34;4.50;99.90
35127;DHT22;21300;52.006;5.798;2023-12-20T02:31:59;4.60;99.90
35127;DHT22;21300;52.006;5.798;2023-12-20T02:34:25;4.60;99.90
35127;DHT22;21300;52.006;5.798;2023-12-20T02:36:51;4.60;99.90
35127;DHT22;21300;52.006;5.798;2023-12-20T02:39:16;4.60;99.90
35127;DHT22;21300;52.006;5.798;2023-12-20T02:41:42;4.60;99.90
35127;DHT22;21300;52.006;5.798;2023-12-20T02:44:08;4.60;99.90
35127;DHT22;21300;52.006;5.798;2023-12-20T02:46:33;4.70;99.90
35127;DHT22;21300;52.006;5.798;2023-12-20T02:48:59;4.70;99.90
35127;DHT22;21300;52.006;5.798;2023-12-20T02:51:24;4.70;99.90
35127;DHT22;21300;52.006;5.798;2023-12-20T02:53:50;4.70;99.90
35127;DHT22;21300;52.006;5.798;2023-12-20T02:56:16;4.80;99.90
35127;DHT22;21300;52.006;5.798;2023-12-20T02:58:41;4.80;99.90
35127;DHT22;21300;52.006;5.798;2023-12-20T03:01:07;4.90;99.90
35127;DHT22;21300;52.006;5.798;2023-12-20T03:03:32;4.90;99.90
35127;DHT22;21300;52.006;5.798;2023-12-20T03:05:58;4.90;99.90
35127;DHT22;21300;52.006;5.798;2023-12-20T03:08:24;4.90;99.90
35127;DHT22;21300;52.006;5.798;2023-12-20T03:10:50;4.90;99.90
35127;DHT22;21300;52.006;5.798;2023-12-20T03:13:15;4.90;99.90
35127;DHT22;21300;52.006;5.798;2023-12-20T03:15:41;4.80;99.90
35127;DHT22;21300;52.006;5.798;2023-12-20T03:18:06;4.90;99.90
35127;DHT22;21300;52.006;5.798;2023-12-20T03:20:32;4.80;99.90
35127;DHT22;21300;52.006;5.798;2023-12-20T03:23:00;4.80;99.90
35127;DHT22;21300;52.006;5.798;2023-12-20T03:25:26;4.80;99.90
35127;DHT22;21300;52.006;5.798;2023-12-20T03:27:52;4.80;99.90
35127;DHT22;21300;52.006;5.798;2023-12-20T03:30:18;4.80;99.90
35127;DHT22;21300;52.006;5.798;2023-12-20T03:32:45;4.70;99.90
35127;DHT22;21300;52.006;5.798;2023-12-20T03:35:10;4.80;99.90
35127;DHT22;21300;52.006;5.798;2023-12-20T03:37:36;4.70;99.90
35127;DHT22;21300;52.006;5.798;2023-12-20T03:40:03;4.70;99.90
35127;DHT22;21300;52.006;5.798;2023-12-20T03:42:28;4.70;99.90
35127;DHT22;21300;52.006;5.798;2023-12-20T03:44:54;4.70;99.90
35127;DHT22;21300;52.006;5.798;2023-12-20T03:47:20;4.70;99.90
35127;DHT22;21300;52.006;5.798;2023-12-20T03:49:45;4.70;99.90
35127;DHT22;21300;52.006;5.798;2023-12-20T03:52:11;4.70;99.90
35127;DHT22;21300;52.006;5.798;2023-12-20T03:54:37;4.70;99.90
35127;DHT22;21300;52.006;5.798;2023-12-20T03:57:06;4.70;99.90
35127;DHT22;21300;52.006;5.798;2023-12-20T03:59:35;4.70;99.90
35127;DHT22;21300;52.006;5.798;2023-12-20T04:02:01;4.70;99.90
35127;DHT22;21300;52.006;5.798;2023-12-20T04:04:27;4.80;99.90
35127;DHT22;21300;52.006;5.798;2023-12-20T04:06:53;4.80;99.90
35127;DHT22;21300;52.006;5.798;2023-12-20T04:09:18;4.90;99.90
35127;DHT22;21300;52.006;5.798;2023-12-20T04:11:44;4.80;99.90
35127;DHT22;21300;52.006;5.798;2023-12-20T04:14:10;4.80;99.90
35127;DHT22;21300;52.006;5.798;2023-12-20T04:16:35;4.90;99.90
35127;DHT22;21300;52.006;5.798;2023-12-20T04:19:01;5.00;99.90
35127;DHT22;21300;52.006;5.798;2023-12-20T04:21:27;5.00;99.90
35127;DHT22;21300;52.006;5.798;2023-12-20T04:23:53;5.00;99.90
35127;DHT22;21300;52.006;5.798;2023-12-20T04:26:19;5.00;99.90
35127;DHT22;21300;52.006;5.798;2023-12-20T04:28:44;5.00;99.90
35127;DHT22;21300;52.006;5.798;2023-12-20T04:31:10;5.10;99.90
35127;DHT22;21300;52.006;5.798;2023-12-20T04:33:35;5.00;99.90
35127;DHT22;21300;52.006;5.798;2023-12-20T04:36:01;5.10;99.90
35127;DHT22;21300;52.006;5.798;2023-12-20T04:38:26;5.10;99.90
35127;DHT22;21300;52.006;5.798;2023-12-20T04:40:52;5.10;99.90
35127;DHT22;21300;52.006;5.798;2023-12-20T04:43:18;5.10;99.90
35127;DHT22;21300;52.006;5.798;2023-12-20T04:45:43;5.10;99.90
35127;DHT22;21300;52.006;5.798;2023-12-20T04:48:09;5.10;99.90
35127;DHT22;21300;52.006;5.798;2023-12-20T04:50:35;5.10;99.90
35127;DHT22;21300;52.006;5.798;2023-12-20T04:53:00;5.10;99.90
35127;DHT22;21300;52.006;5.798;2023-12-20T04:55:26;5.20;99.90
35127;DHT22;21300;52.006;5.798;2023-12-20T04:57:52;5.20;99.90
35127;DHT22;21300;52.006;5.798;2023-12-20T05:00:17;5.20;99.90
35127;DHT22;21300;52.006;5.798;2023-12-20T05:02:43;5.30;99.90
35127;DHT22;21300;52.006;5.798;2023-12-20T05:05:12;5.30;99.90
35127;DHT22;21300;52.006;5.798;2023-12-20T05:07:38;5.30;99.90
35127;DHT22;21300;52.006;5.798;2023-12-20T05:10:03;5.30;99.90
35127;DHT22;21300;52.006;5.798;2023-12-20T05:12:33;5.30;99.90
35127;DHT22;21300;52.006;5.798;2023-12-20T05:14:59;5.30;99.90
35127;DHT22;21300;52.006;5.798;2023-12-20T05:17:25;5.40;99.90
35127;DHT22;21300;52.006;5.798;2023-12-20T05:19:51;5.50;99.90
35127;DHT22;21300;52.006;5.798;2023-12-20T05:22:16;5.40;99.90
35127;DHT22;21300;52.006;5.798;2023-12-20T05:24:42;5.50;99.90
35127;DHT22;21300;52.006;5.798;2023-12-20T05:27:08;5.50;99.90
35127;DHT22;21300;52.006;5.798;2023-12-20T05:29:33;5.60;99.90
35127;DHT22;21300;52.006;5.798;2023-12-20T05:31:59;5.50;99.90
35127;DHT22;21300;52.006;5.798;2023-12-20T05:34:25;5.60;99.90
35127;DHT22;21300;52.006;5.798;2023-12-20T05:36:51;5.60;99.90
35127;DHT22;21300;52.006;5.798;2023-12-20T05:39:17;5.60;99.90
35127;DHT22;21300;52.006;5.798;2023-12-20T05:41:43;5.70;99.90
35127;DHT22;21300;52.006;5.798;2023-12-20T05:44:09;5.70;99.90
35127;DHT22;21300;52.006;5.798;2023-12-20T05:46:35;5.70;99.90
35127;DHT22;21300;52.006;5.798;2023-12-20T05:49:05;5.70;99.90
35127;DHT22;21300;52.006;5.798;2023-12-20T05:51:30;5.80;99.90
35127;DHT22;21300;52.006;5.798;2023-12-20T05:53:56;5.80;99.90
35127;DHT22;21300;52.006;5.798;2023-12-20T05:56:21;5.80;99.90
35127;DHT22;21300;52.006;5.798;2023-12-20T05:58:47;5.80;99.90
35127;DHT22;21300;52.006;5.798;2023-12-20T06:01:14;5.80;99.90
35127;DHT22;21300;52.006;5.798;2023-12-20T06:03:43;5.80;99.90
35127;DHT22;21300;52.006;5.798;2023-12-20T06:06:09;5.80;99.90
35127;DHT22;21300;52.006;5.798;2023-12-20T06:08:36;5.80;99.90
35127;DHT22;21300;52.006;5.798;2023-12-20T06:11:01;5.90;99.90
35127;DHT22;21300;52.006;5.798;2023-12-20T06:13:27;5.90;99.90
35127;DHT22;21300;52.006;5.798;2023-12-20T06:15:54;5.90;99.90
35127;DHT22;21300;52.006;5.798;2023-12-20T06:18:20;5.80;99.90
35127;DHT22;21300;52.006;5.798;2023-12-20T06:20:46;5.80;99.90
35127;DHT22;21300;52.006;5.798;2023-12-20T06:23:12;5.80;99.90
35127;DHT22;21300;52.006;5.798;2023-12-20T06:25:37;5.90;99.90
35127;DHT22;21300;52.006;5.798;2023-12-20T06:28:03;5.90;99.90
35127;DHT22;21300;52.006;5.798;2023-12-20T06:30:29;5.90;99.90
35127;DHT22;21300;52.006;5.798;2023-12-20T06:32:54;5.90;99.90
35127;DHT22;21300;52.006;5.798;2023-12-20T06:35:22;5.90;99.90
35127;DHT22;21300;52.006;5.798;2023-12-20T06:37:51;5.90;99.90
35127;DHT22;21300;52.006;5.798;2023-12-20T06:40:16;5.90;99.90
35127;DHT22;21300;52.006;5.798;2023-12-20T06:42:42;5.90;99.90
35127;DHT22;21300;52.006;5.798;2023-12-20T06:45:08;5.90;99.90
35127;DHT22;21300;52.006;5.798;2023-12-20T06:47:34;5.90;99.90
35127;DHT22;21300;52.006;5.798;2023-12-20T06:50:00;5.90;99.90
35127;DHT22;21300;52.006;5.798;2023-12-20T06:52:26;6.00;99.90
35127;DHT22;21300;52.006;5.798;2023-12-20T06:54:52;6.00;99.90
35127;DHT22;21300;52.006;5.798;2023-12-20T06:57:17;6.00;99.90
35127;DHT22;21300;52.006;5.798;2023-12-20T06:59:45;6.00;99.90
35127;DHT22;21300;52.006;5.798;2023-12-20T07:02:10;6.00;99.90
35127;DHT22;21300;52.006;5.798;2023-12-20T07:04:40;6.00;99.90
35127;DHT22;21300;52.006;5.798;2023-12-20T07:07:06;6.00;99.90
35127;DHT22;21300;52.006;5.798;2023-12-20T07:09:32;6.00;99.90
35127;DHT22;21300;52.006;5.798;2023-12-20T07:11:58;6.00;99.90
35127;DHT22;21300;52.006;5.798;2023-12-20T07:14:24;6.00;99.90
35127;DHT22;21300;52.006;5.798;2023-12-20T07:16:49;6.00;99.90
35127;DHT22;21300;52.006;5.798;2023-12-20T07:19:15;6.00;99.90
35127;DHT22;21300;52.006;5.798;2023-12-20T07:21:40;6.00;99.90
35127;DHT22;21300;52.006;5.798;2023-12-20T07:24:09;6.00;99.90
35127;DHT22;21300;52.006;5.798;2023-12-20T07:26:35;6.00;99.90
35127;DHT22;21300;52.006;5.798;2023-12-20T07:29:00;6.00;99.90
35127;DHT22;21300;52.006;5.798;2023-12-20T07:31:26;6.00;99.90
35127;DHT22;21300;52.006;5.798;2023-12-20T07:33:52;6.00;99.90
35127;DHT22;21300;52.006;5.798;2023-12-20T07:36:19;6.00;99.90
35127;DHT22;21300;52.006;5.798;2023-12-20T07:38:44;6.00;99.90
35127;DHT22;21300;52.006;5.798;2023-12-20T07:41:10;6.00;99.90
35127;DHT22;21300;52.006;5.798;2023-12-20T07:43:36;6.10;99.90
35127;DHT22;21300;52.006;5.798;2023-12-20T07:46:06;6.10;99.90
35127;DHT22;21300;52.006;5.798;2023-12-20T07:48:32;6.10;99.90
35127;DHT22;21300;52.006;5.798;2023-12-20T07:50:58;6.20;99.90
35127;DHT22;21300;52.006;5.798;2023-12-20T07:53:24;6.20;99.90
35127;DHT22;21300;52.006;5.798;2023-12-20T07:55:49;6.20;99.90
35127;DHT22;21300;52.006;5.798;2023-12-20T07:58:15;6.20;99.90
35127;DHT22;21300;52.006;5.798;2023-12-20T08:00:40;6.20;99.90
35127;DHT22;21300;52.006;5.798;2023-12-20T08:03:06;6.20;99.90
35127;DHT22;21300;52.006;5.798;2023-12-20T08:05:32;6.20;99.90
35127;DHT22;21300;52.006;5.798;2023-12-20T08:07:58;6.30;99.90
35127;DHT22;21300;52.006;5.798;2023-12-20T08:10:24;6.20;99.90
35127;DHT22;21300;52.006;5.798;2023-12-20T08:12:49;6.20;99.90
35127;DHT22;21300;52.006;5.798;2023-12-20T08:15:15;6.30;99.90
35127;DHT22;21300;52.006;5.798;2023-12-20T08:17:41;6.30;99.90
35127;DHT22;21300;52.006;5.798;2023-12-20T08:20:07;6.30;99.90
35127;DHT22;21300;52.006;5.798;2023-12-20T08:22:33;6.30;99.90
35127;DHT22;21300;52.006;5.798;2023-12-20T08:24:59;6.30;99.90
35127;DHT22;21300;52.006;5.798;2023-12-20T08:27:24;6.30;99.90
35127;DHT22;21300;52.006;5.798;2023-12-20T08:29:51;6.30;99.90
35127;DHT22;21300;52.006;5.798;2023-12-20T08:32:16;6.40;99.90
35127;DHT22;21300;52.006;5.798;2023-12-20T08:34:42;6.40;99.90
35127;DHT22;21300;52.006;5.798;2023-12-20T08:37:08;6.40;99.90
35127;DHT22;21300;52.006;5.798;2023-12-20T08:39:33;6.40;99.90
35127;DHT22;21300;52.006;5.798;2023-12-20T08:41:59;6.40;99.90
35127;DHT22;21300;52.006;5.798;2023-12-20T08:44:24;6.40;99.90
35127;DHT22;21300;52.006;5.798;2023-12-20T08:46:50;6.40;99.90
35127;DHT22;21300;52.006;5.798;2023-12-20T08:49:17;6.40;99.90
35127;DHT22;21300;52.006;5.798;2023-12-20T08:51:42;6.50;99.90
35127;DHT22;21300;52.006;5.798;2023-12-20T08:54:08;6.50;99.90
35127;DHT22;21300;52.006;5.798;2023-12-20T08:56:34;6.50;99.90
35127;DHT22;21300;52.006;5.798;2023-12-20T08:58:59;6.50;99.90
35127;DHT22;21300;52.006;5.798;2023-12-20T09:01:25;6.50;99.90
35127;DHT22;21300;52.006;5.798;2023-12-20T09:03:51;6.50;99.90
35127;DHT22;21300;52.006;5.798;2023-12-20T09:06:16;6.50;99.90
35127;DHT22;21300;52.006;5.798;2023-12-20T09:08:42;6.50;99.90
35127;DHT22;21300;52.006;5.798;2023-12-20T09:11:07;6.50;99.90
35127;DHT22;21300;52.006;5.798;2023-12-20T09:13:33;6.50;99.90
35127;DHT22;21300;52.006;5.798;2023-12-20T09:15:59;6.50;99.90
35127;DHT22;21300;52.006;5.798;2023-12-20T09:18:25;6.50;99.90
35127;DHT22;21300;52.006;5.798;2023-12-20T09:20:50;6.50;99.90
35127;DHT22;21300;52.006;5.798;2023-12-20T09:23:16;6.50;99.90
35127;DHT22;21300;52.006;5.798;2023-12-20T09:25:43;6.50;99.90
35127;DHT22;21300;52.006;5.798;2023-12-20T09:28:09;6.40;99.90
35127;DHT22;21300;52.006;5.798;2023-12-20T09:30:35;6.50;99.90
35127;DHT22;21300;52.006;5.798;2023-12-20T09:33:05;6.50;99.90
35127;DHT22;21300;52.006;5.798;2023-12-20T09:35:32;6.50;99.90
35127;DHT22;21300;52.006;5.798;2023-12-20T09:37:57;6.50;99.90
35127;DHT22;21300;52.006;5.798;2023-12-20T09:40:26;6.50;99.90
35127;DHT22;21300;52.006;5.798;2023-12-20T09:43:08;6.50;99.90
35127;DHT22;21300;52.006;5.798;2023-12-20T09:45:34;6.50;99.90
35127;DHT22;21300;52.006;5.798;2023-12-20T09:48:00;6.50;99.90
35127;DHT22;21300;52.006;5.798;2023-12-20T09:50:25;6.50;99.90
35127;DHT22;21300;52.006;5.798;2023-12-20T09:52:53;6.50;99.90
35127;DHT22;21300;52.006;5.798;2023-12-20T09:55:19;6.50;99.90
35127;DHT22;21300;52.006;5.798;2023-12-20T09:57:46;6.50;99.90
35127;DHT22;21300;52.006;5.798;2023-12-20T10:00:13;6.50;99.90
35127;DHT22;21300;52.006;5.798;2023-12-20T10:02:50;6.50;99.90
35127;DHT22;21300;52.006;5.798;2023-12-20T10:05:32;6.60;99.90
35127;DHT22;21300;52.006;5.798;2023-12-20T10:07:59;6.60;99.90
35127;DHT22;21300;52.006;5.798;2023-12-20T10:10:25;6.60;99.90
35127;DHT22;21300;52.006;5.798;2023-12-20T10:13:08;6.60;99.90
35127;DHT22;21300;52.006;5.798;2023-12-20T10:15:37;6.60;99.90
35127;DHT22;21300;52.006;5.798;2023-12-20T10:18:04;6.70;99.90
35127;DHT22;21300;52.006;5.798;2023-12-20T10:20:30;6.70;99.90
35127;DHT22;21300;52.006;5.798;2023-12-20T10:22:57;6.70;99.90
35127;DHT22;21300;52.006;5.798;2023-12-20T10:25:23;6.70;99.90
35127;DHT22;21300;52.006;5.798;2023-12-20T10:27:50;6.70;99.90
35127;DHT22;21300;52.006;5.798;2023-12-20T10:30:16;6.80;99.90
35127;DHT22;21300;52.006;5.798;2023-12-20T10:32:42;6.80;99.90
35127;DHT22;21300;52.006;5.798;2023-12-20T10:35:08;6.80;99.90
35127;DHT22;21300;52.006;5.798;2023-12-20T10:37:36;6.90;99.90
35127;DHT22;21300;52.006;5.798;2023-12-20T10:40:04;6.90;99.90
35127;DHT22;21300;52.006;5.798;2023-12-20T10:42:32;6.90;99.90
35127;DHT22;21300;52.006;5.798;2023-12-20T10:44:59;6.90;99.90
35127;DHT22;21300;52.006;5.798;2023-12-20T10:47:25;6.90;99.90
35127;DHT22;21300;52.006;5.798;2023-12-20T10:49:52;6.90;99.90
35127;DHT22;21300;52.006;5.798;2023-12-20T10:52:18;6.90;99.90
35127;DHT22;21300;52.006;5.798;2023-12-20T10:54:45;6.90;99.90
35127;DHT22;21300;52.006;5.798;2023-12-20T10:57:11;6.90;99.90
35127;DHT22;21300;52.006;5.798;2023-12-20T10:59:38;6.90;99.90
35127;DHT22;21300;52.006;5.798;2023-12-20T11:02:05;7.00;99.90
35127;DHT22;21300;52.006;5.798;2023-12-20T11:07:35;7.10;99.90
35127;DHT22;21300;52.006;5.798;2023-12-20T11:10:31;7.10;99.90
35127;DHT22;21300;52.006;5.798;2023-12-20T11:13:08;7.20;99.90
35127;DHT22;21300;52.006;5.798;2023-12-20T11:15:36;7.20;99.90
35127;DHT22;21300;52.006;5.798;2023-12-20T11:18:04;7.20;99.90
35127;DHT22;21300;52.006;5.798;2023-12-20T11:20:38;7.20;99.90
35127;DHT22;21300;52.006;5.798;2023-12-20T11:23:05;7.30;99.90
35127;DHT22;21300;52.006;5.798;2023-12-20T11:25:49;7.30;99.90
35127;DHT22;21300;52.006;5.798;2023-12-20T11:28:20;7.30;99.90
35127;DHT22;21300;52.006;5.798;2023-12-20T11:33:15;7.40;99.90
35127;DHT22;21300;52.006;5.798;2023-12-20T11:35:42;7.50;99.90
35127;DHT22;21300;52.006;5.798;2023-12-20T11:38:09;7.50;99.90
35127;DHT22;21300;52.006;5.798;2023-12-20T11:40:35;7.50;99.90
35127;DHT22;21300;52.006;5.798;2023-12-20T11:43:02;7.50;99.90
35127;DHT22;21300;52.006;5.798;2023-12-20T11:45:27;7.60;99.90
35127;DHT22;21300;52.006;5.798;2023-12-20T11:47:53;7.60;99.90
35127;DHT22;21300;52.006;5.798;2023-12-20T11:50:20;7.60;99.90
35127;DHT22;21300;52.006;5.798;2023-12-20T11:52:50;7.70;99.90
35127;DHT22;21300;52.006;5.798;2023-12-20T11:55:17;7.60;99.90
35127;DHT22;21300;52.006;5.798;2023-12-20T11:57:43;7.70;99.90
35127;DHT22;21300;52.006;5.798;2023-12-20T12:00:09;7.70;99.90
35127;DHT22;21300;52.006;5.798;2023-12-20T12:02:35;7.70;99.90
35127;DHT22;21300;52.006;5.798;2023-12-20T12:05:01;7.70;99.90
35127;DHT22;21300;52.006;5.798;2023-12-20T12:07:27;7.70;99.90
35127;DHT22;21300;52.006;5.798;2023-12-20T12:09:52;7.70;99.90
35127;DHT22;21300;52.006;5.798;2023-12-20T12:12:19;7.70;99.90
35127;DHT22;21300;52.006;5.798;2023-12-20T12:14:46;7.70;99.90
35127;DHT22;21300;52.006;5.798;2023-12-20T12:17:15;7.80;99.90
35127;DHT22;21300;52.006;5.798;2023-12-20T12:19:42;7.80;99.90
35127;DHT22;21300;52.006;5.798;2023-12-20T12:22:15;7.80;99.90
35127;DHT22;21300;52.006;5.798;2023-12-20T12:24:48;7.80;99.90
35127;DHT22;21300;52.006;5.798;2023-12-20T12:27:15;7.80;99.90
35127;DHT22;21300;52.006;5.798;2023-12-20T12:29:59;7.80;99.90
35127;DHT22;21300;52.006;5.798;2023-12-20T12:32:25;7.90;99.90
35127;DHT22;21300;52.006;5.798;2023-12-20T12:34:51;7.80;99.90
35127;DHT22;21300;52.006;5.798;2023-12-20T12:37:18;7.80;99.90
35127;DHT22;21300;52.006;5.798;2023-12-20T12:39:46;7.80;99.90
35127;DHT22;21300;52.006;5.798;2023-12-20T12:42:12;7.80;99.90
35127;DHT22;21300;52.006;5.798;2023-12-20T12:44:37;7.90;99.90
35127;DHT22;21300;52.006;5.798;2023-12-20T12:47:03;7.90;99.90
35127;DHT22;21300;52.006;5.798;2023-12-20T12:49:29;7.80;99.90
35127;DHT22;21300;52.006;5.798;2023-12-20T12:51:54;7.80;99.90
35127;DHT22;21300;52.006;5.798;2023-12-20T12:54:23;7.80;99.90
35127;DHT22;21300;52.006;5.798;2023-12-20T12:56:49;7.80;99.90
35127;DHT22;21300;52.006;5.798;2023-12-20T12:59:16;7.90;99.90
35127;DHT22;21300;52.006;5.798;2023-12-20T13:01:42;7.90;99.90
35127;DHT22;21300;52.006;5.798;2023-12-20T13:04:08;7.90;99.90
35127;DHT22;21300;52.006;5.798;2023-12-20T13:06:37;7.90;99.90
35127;DHT22;21300;52.006;5.798;2023-12-20T13:09:03;7.90;99.90
35127;DHT22;21300;52.006;5.798;2023-12-20T13:11:30;8.00;99.90
35127;DHT22;21300;52.006;5.798;2023-12-20T13:13:57;7.90;99.90
35127;DHT22;21300;52.006;5.798;2023-12-20T13:16:26;8.00;99.90
35127;DHT22;21300;52.006;5.798;2023-12-20T13:18:52;8.00;99.90
35127;DHT22;21300;52.006;5.798;2023-12-20T13:21:17;8.00;99.90
35127;DHT22;21300;52.006;5.798;2023-12-20T13:23:43;8.00;99.90
35127;DHT22;21300;52.006;5.798;2023-12-20T13:26:09;8.00;99.90
35127;DHT22;21300;52.006;5.798;2023-12-20T13:28:34;8.00;99.90
35127;DHT22;21300;52.006;5.798;2023-12-20T13:31:01;8.00;99.90
35127;DHT22;21300;52.006;5.798;2023-12-20T13:33:27;8.00;99.90
35127;DHT22;21300;52.006;5.798;2023-12-20T13:35:52;8.00;99.90
35127;DHT22;21300;52.006;5.798;2023-12-20T13:38:18;8.00;99.90
35127;DHT22;21300;52.006;5.798;2023-12-20T13:40:44;7.90;99.90
35127;DHT22;21300;52.006;5.798;2023-12-20T13:43:09;7.90;99.90
35127;DHT22;21300;52.006;5.798;2023-12-20T13:45:38;7.90;99.90
35127;DHT22;21300;52.006;5.798;2023-12-20T13:48:03;8.00;99.90
35127;DHT22;21300;52.006;5.798;2023-12-20T13:50:30;8.00;99.90
35127;DHT22;21300;52.006;5.798;2023-12-20T13:52:55;8.00;99.90
35127;DHT22;21300;52.006;5.798;2023-12-20T13:55:21;8.00;99.90
35127;DHT22;21300;52.006;5.798;2023-12-20T13:57:51;8.00;99.90
35127;DHT22;21300;52.006;5.798;2023-12-20T14:00:16;8.00;99.90
35127;DHT22;21300;52.006;5.798;2023-12-20T14:02:42;7.90;99.90
35127;DHT22;21300;52.006;5.798;2023-12-20T14:05:09;8.00;99.90
35127;DHT22;21300;52.006;5.798;2023-12-20T14:07:35;8.00;99.90
35127;DHT22;21300;52.006;5.798;2023-12-20T14:10:00;8.00;99.90
35127;DHT22;21300;52.006;5.798;2023-12-20T14:12:26;8.00;99.90
35127;DHT22;21300;52.006;5.798;2023-12-20T14:14:52;8.00;99.90
35127;DHT22;21300;52.006;5.798;2023-12-20T14:17:17;8.00;99.90
35127;DHT22;21300;52.006;5.798;2023-12-20T14:19:46;8.00;99.90
35127;DHT22;21300;52.006;5.798;2023-12-20T14:22:11;8.00;99.90
35127;DHT22;21300;52.006;5.798;2023-12-20T14:24:41;8.00;99.90
35127;DHT22;21300;52.006;5.798;2023-12-20T14:27:07;8.00;99.90
35127;DHT22;21300;52.006;5.798;2023-12-20T14:29:32;8.00;99.90
35127;DHT22;21300;52.006;5.798;2023-12-20T14:31:58;8.00;99.90
35127;DHT22;21300;52.006;5.798;2023-12-20T14:34:23;8.00;99.90
35127;DHT22;21300;52.006;5.798;2023-12-20T14:36:49;8.00;99.90
35127;DHT22;21300;52.006;5.798;2023-12-20T14:39:15;7.90;99.90
35127;DHT22;21300;52.006;5.798;2023-12-20T14:41:42;7.90;99.90
35127;DHT22;21300;52.006;5.798;2023-12-20T14:44:07;8.00;99.90
35127;DHT22;21300;52.006;5.798;2023-12-20T14:46:33;8.00;99.90
35127;DHT22;21300;52.006;5.798;2023-12-20T14:48:59;8.00;99.90
35127;DHT22;21300;52.006;5.798;2023-12-20T14:51:29;8.00;99.90
35127;DHT22;21300;52.006;5.798;2023-12-20T14:53:55;8.00;99.90
35127;DHT22;21300;52.006;5.798;2023-12-20T14:56:22;8.00;99.90
35127;DHT22;21300;52.006;5.798;2023-12-20T14:58:52;8.00;99.90
35127;DHT22;21300;52.006;5.798;2023-12-20T15:01:18;8.00;99.90
35127;DHT22;21300;52.006;5.798;2023-12-20T15:03:47;7.90;99.90
35127;DHT22;21300;52.006;5.798;2023-12-20T15:06:12;7.90;99.90
35127;DHT22;21300;52.006;5.798;2023-12-20T15:08:38;7.90;99.90
35127;DHT22;21300;52.006;5.798;2023-12-20T15:11:04;7.90;99.90
35127;DHT22;21300;52.006;5.798;2023-12-20T15:13:29;8.00;99.90
35127;DHT22;21300;52.006;5.798;2023-12-20T15:15:56;7.90;99.90
35127;DHT22;21300;52.006;5.798;2023-12-20T15:18:22;7.90;99.90
35127;DHT22;21300;52.006;5.798;2023-12-20T15:20:47;7.90;99.90
35127;DHT22;21300;52.006;5.798;2023-12-20T15:23:13;7.90;99.90
35127;DHT22;21300;52.006;5.798;2023-12-20T15:25:39;7.90;99.90
35127;DHT22;21300;52.006;5.798;2023-12-20T15:28:04;7.90;99.90
35127;DHT22;21300;52.006;5.798;2023-12-20T15:30:30;7.90;99.90
35127;DHT22;21300;52.006;5.798;2023-12-20T15:32:56;7.90;99.90
35127;DHT22;21300;52.006;5.798;2023-12-20T15:35:22;7.80;99.90
35127;DHT22;21300;52.006;5.798;2023-12-20T15:37:48;7.90;99.90
35127;DHT22;21300;52.006;5.798;2023-12-20T15:40:13;7.80;99.90
35127;DHT22;21300;52.006;5.798;2023-12-20T15:42:39;7.80;99.90
35127;DHT22;21300;52.006;5.798;2023-12-20T15:45:06;7.80;99.90